Date,TemperatureHighF,TemperatureAvgF,TemperatureLowF,DewpointHighF,DewpointAvgF,DewpointLowF,HumidityHigh,HumidityAvg,HumidityLow,PressureMaxIn,PressureMinIn,WindSpeedMaxMPH,WindSpeedAvgMPH,GustSpeedMaxMPH,PrecipitationSumIn
2013-1-21,-15.0,-16.5,-18.0,-23.4,-24.2,-25.2,70,66,59,29.95,29.91,2,0,3,1.55
2013-1-22,7.5,-11.7,-22.9,-4.8,-20.0,-28.8,78,66,48,30.04,29.91,11,3,14,0.00
2013-1-23,10.6,-3.3,-14.6,3.7,-11.3,-22.5,85,69,43,30.28,29.80,13,5,21,0.00
2013-1-24,4.5,-9.9,-18.9,-7.6,-17.9,-25.0,76,67,52,30.34,30.09,15,4,18,0.00
2013-1-25,17.4,10.8,0.0,14.2,5.3,-4.7,93,79,65,29.96,29.59,21,7,21,0.00
2013-1-26,18.9,6.4,-13.5,8.5,-1.7,-17.7,83,70,57,30.05,29.86,18,5,18,0.00
2013-1-27,35.1,29.0,16.0,29.0,23.5,8.5,99,82,50,29.85,29.54,23,5,29,0.01
2013-1-28,32.4,28.5,23.9,31.2,28.1,23.7,99,98,95,29.61,29.38,13,3,17,0.00
2013-1-29,34.5,30.5,25.0,33.6,29.4,21.1,99,95,85,29.44,29.22,9,3,14,0.00
2013-1-30,25.0,14.9,7.3,21.1,9.9,1.6,91,80,69,29.43,29.29,12,6,16,0.00
2013-1-31,8.6,3.3,-9.6,2.0,-4.5,-16.2,81,70,55,29.86,29.36,10,5,16,0.00
2013-2-1,-0.9,-8.9,-20.9,-8.9,-17.9,-26.4,75,64,46,29.95,29.78,17,5,24,0.00
2013-2-2,11.1,1.1,-13.0,0.2,-7.0,-17.7,83,69,49,29.85,29.65,19,4,26,0.00
2013-2-3,16.2,6.6,0.9,1.9,-2.2,-7.5,85,68,40,29.71,29.62,10,2,11,0.00
2013-2-4,16.2,2.0,-18.2,5.9,-9.9,-23.7,88,59,28,29.74,29.45,12,4,14,0.00
2013-2-5,25.2,14.9,0.0,17.8,9.4,-6.0,95,80,50,29.74,29.33,16,5,18,0.00
2013-2-6,20.3,16.6,-6.7,19.0,13.7,-11.5,96,88,69,29.80,29.69,8,3,9,0.00
2013-2-7,26.8,22.9,19.8,21.6,19.9,17.8,97,88,74,29.98,29.06,12,6,21,0.00
2013-2-8,29.7,15.7,-0.2,18.1,8.6,-3.7,93,75,48,30.08,29.95,6,1,9,0.01
2013-2-9,27.0,20.5,0.1,25.1,18.1,-3.7,99,90,77,29.96,29.69,18,8,27,0.00
2013-2-10,30.4,25.3,23.4,30.1,24.7,23.0,99,97,93,29.69,29.01,6,2,16,0.00
2013-2-11,30.6,25.2,21.7,30.3,21.5,17.6,99,86,80,29.63,29.01,0,0,0,0.00
2013-2-12,32.4,25.6,12.4,22.7,19.6,10.5,93,78,65,29.67,29.45,15,6,24,0.00
2013-2-13,30.9,22.8,20.5,23.6,19.5,18.5,92,87,72,30.19,29.37,6,2,11,0.00
2013-2-14,31.6,20.9,4.3,27.4,10.4,-3.8,96,65,40,29.81,28.77,7,2,17,0.01
2013-2-15,20.7,10.8,-0.2,3.9,-0.4,-4.5,82,62,35,29.94,29.81,5,2,15,0.00
2013-2-16,20.5,4.8,-11.7,6.0,-5.3,-18.2,82,64,35,29.90,29.82,4,1,9,0.00
2013-2-17,27.3,9.7,-17.9,14.9,-0.2,-23.7,78,64,52,29.83,29.41,21,9,31,0.00
2013-2-18,32.7,25.0,11.1,25.8,19.4,4.8,91,79,68,29.41,29.21,13,5,25,0.00
2013-2-19,11.5,4.1,-2.9,5.1,-6.9,-12.7,77,60,41,29.99,29.41,9,4,22,0.00
2013-2-20,23.0,5.8,-9.0,5.7,-3.2,-14.5,80,67,41,30.14,29.99,4,1,13,0.00
2013-2-21,30.6,10.3,-14.8,17.4,3.2,-19.4,87,74,46,30.19,29.84,6,2,16,0.00
2013-2-22,28.4,22.1,16.5,25.0,20.0,15.1,96,91,87,29.86,29.52,6,2,13,0.00
2013-2-23,33.4,26.6,17.1,27.9,23.3,-14.2,98,87,73,29.62,29.49,131,1,8,0.07
2013-2-24,38.7,27.3,13.5,24.9,21.1,10.7,91,78,57,29.80,29.62,8,1,13,0.02
2013-2-25,35.8,19.7,3.9,24.5,14.5,1.5,91,81,61,29.81,29.74,10,1,13,0.00
2013-2-26,37.4,12.8,6.4,29.4,9.7,-33.6,93,88,13,29.79,29.70,146,2,146,0.00
2013-2-27,30.9,30.1,29.5,24.7,23.6,21.8,80,76,72,29.98,29.91,6,4,17,0.00
2013-2-28,29.5,26.8,25.5,23.3,20.9,19.2,80,78,74,30.09,29.98,7,5,18,0.00
2013-7-16,78.8,78.0,77.4,72.0,71.7,71.4,83,81,79,30.16,30.15,2,1,4,0.00
2013-7-17,91.9,82.5,72.0,72.0,68.7,62.9,95,66,39,30.20,30.06,9,2,19,0.00
2013-7-18,93.0,84.1,73.2,72.7,69.9,65.9,91,65,42,30.07,29.66,14,5,31,0.00
2013-7-19,84.2,78.7,74.3,72.9,71.5,69.4,94,79,63,29.70,29.62,6,2,15,0.00
2013-8-6,73.9,64.9,57.6,65.4,61.1,57.3,99,89,63,29.79,29.68,8,2,13,0.00
2013-8-7,76.5,65.2,53.8,62.5,52.8,43.9,99,70,33,29.99,29.73,7,1,10,0.00
2013-8-8,73.4,61.1,48.7,61.8,54.2,48.5,99,81,47,30.02,29.94,7,1,11,0.00
2013-8-9,73.2,63.1,52.3,58.9,50.7,42.5,99,68,34,30.08,29.95,4,1,10,0.00
2013-8-10,75.6,64.0,56.3,56.2,51.1,45.3,89,66,35,30.14,30.06,4,1,7,0.00
2013-8-11,77.0,63.7,48.7,57.5,51.8,45.8,98,70,35,30.08,29.97,4,1,8,0.00
2013-8-12,79.3,60.5,49.3,61.2,52.4,45.2,96,77,30,30.08,29.95,6,1,11,0.02
2013-8-13,72.0,58.5,43.3,57.6,45.6,38.0,98,68,32,30.17,30.07,4,1,11,0.00
2013-8-14,74.3,59.4,43.5,54.1,46.2,37.1,96,67,27,30.19,30.06,6,1,14,0.00
2013-8-15,78.1,64.5,51.3,55.1,49.2,39.1,94,63,26,30.10,30.03,5,1,10,0.00
2013-8-16,79.3,70.6,54.1,59.2,52.4,43.4,91,56,31,30.14,30.08,5,1,13,0.00
2013-8-17,72.1,58.5,52.3,56.6,53.1,50.1,95,84,50,30.17,30.14,8,1,15,0.00
2013-8-30,69.4,69.4,69.4,64.1,64.1,64.1,83,83,83,29.93,29.93,3,3,10,0.00